Time;durP1;ratioP1;P1;durP2;ratioP2;P2;SDS_P1;SDS_P2;PMS_P1;PMS_P2;Temp;Humidity;BMP_temperature;BMP_pressure;BME280_temperature;BME280_humidity;BME280_pressure;Samples;Min_cycle;Max_cycle;Signal;HPM_P1;HPM_P2
2023/12/12 00:01:34;;;;;;;0.30;0.30;;;;;;;17.03;55.21;100823.03;5070553;28;20136;-69
2023/12/12 00:03:59;;;;;;;0.30;0.30;;;;;;;17.17;54.74;100816.00;5071151;28;20131;-69
2023/12/12 00:06:25;;;;;;;0.30;0.30;;;;;;;17.14;54.51;100819.28;5064699;28;20508;-69
2023/12/12 00:08:50;;;;;;;0.30;0.30;;;;;;;17.16;54.63;100823.31;5050677;28;20045;-70
2023/12/12 00:11:16;;;;;;;0.32;0.32;;;;;;;16.96;56.04;100822.47;5069884;28;20036;-70
2023/12/12 00:13:41;;;;;;;0.30;0.30;;;;;;;16.74;56.92;100817.25;5070439;28;20043;-70
2023/12/12 00:16:07;;;;;;;0.40;0.40;;;;;;;17.07;56.25;100819.50;5051845;28;20088;-70
2023/12/12 00:18:34;;;;;;;0.38;0.38;;;;;;;17.09;55.96;100814.63;5070846;28;20024;-70
2023/12/12 00:21:00;;;;;;;0.30;0.30;;;;;;;17.02;56.50;100810.53;5069665;28;20059;-70
2023/12/12 00:23:26;;;;;;;0.30;0.30;;;;;;;16.98;56.38;100817.59;5069588;28;20037;-70
2023/12/12 00:25:51;;;;;;;0.30;0.30;;;;;;;17.15;56.16;100816.28;5052257;28;20063;-69
2023/12/12 00:28:16;;;;;;;0.20;0.20;;;;;;;17.17;55.86;100816.00;5070883;28;20056;-69
2023/12/12 00:30:42;;;;;;;0.30;0.30;;;;;;;17.11;56.13;100820.63;5071113;28;20039;-69
2023/12/12 00:33:07;;;;;;;0.50;0.50;;;;;;;16.99;56.81;100820.03;5071668;28;20523;-69
2023/12/12 00:35:32;;;;;;;0.25;0.25;;;;;;;17.05;56.45;100820.84;5070760;28;20098;-70
2023/12/12 00:37:58;;;;;;;0.22;0.22;;;;;;;17.04;56.63;100824.66;5070818;28;20037;-70
2023/12/12 00:40:23;;;;;;;0.20;0.20;;;;;;;17.18;55.89;100818.44;5052991;28;20075;-69
2023/12/12 00:42:48;;;;;;;0.10;0.10;;;;;;;17.24;55.73;100817.38;5032400;28;20131;-68
2023/12/12 00:45:14;;;;;;;0.30;0.30;;;;;;;17.36;55.21;100811.66;5051165;28;20029;-69
2023/12/12 00:47:40;;;;;;;0.30;0.30;;;;;;;17.22;55.01;100816.00;5050827;28;20029;-70
2023/12/12 00:50:06;;;;;;;0.30;0.30;;;;;;;17.32;55.13;100816.00;5060476;28;20052;-70
2023/12/12 00:52:31;;;;;;;0.35;0.35;;;;;;;17.09;55.44;100813.81;5070424;28;20033;-70
2023/12/12 00:55:00;;;;;;;0.40;0.40;;;;;;;17.35;54.95;100810.88;5070439;28;20859;-70
2023/12/12 00:57:25;;;;;;;0.30;0.30;;;;;;;17.16;55.62;100807.03;5071065;28;20488;-70
2023/12/12 00:59:51;;;;;;;0.40;0.40;;;;;;;17.25;55.03;100807.31;5070275;28;20123;-70
2023/12/12 01:02:16;;;;;;;0.40;0.40;;;;;;;17.43;54.52;100812.25;5075876;28;20114;-70
2023/12/12 01:04:43;;;;;;;0.50;0.50;;;;;;;17.34;54.46;100813.84;5069595;28;20048;-70
2023/12/12 01:07:08;;;;;;;0.28;0.28;;;;;;;17.19;54.81;100808.41;5070171;28;20051;-70
2023/12/12 01:09:34;;;;;;;0.20;0.20;;;;;;;16.93;56.20;100812.97;5052818;28;20377;-69
2023/12/12 01:11:59;;;;;;;0.20;0.20;;;;;;;16.93;56.52;100815.66;5070444;28;20119;-69
2023/12/12 01:14:25;;;;;;;0.30;0.30;;;;;;;17.33;54.92;100813.03;5051753;28;20119;-70
2023/12/12 01:16:50;;;;;;;0.40;0.40;;;;;;;17.30;54.98;100815.47;5070335;28;20071;-70
2023/12/12 01:19:15;;;;;;;0.35;0.35;;;;;;;17.32;54.92;100807.88;5070155;28;20040;-69
2023/12/12 01:21:41;;;;;;;0.30;0.30;;;;;;;17.32;54.83;100816.00;5052639;28;20443;-70
2023/12/12 01:24:06;;;;;;;0.30;0.30;;;;;;;17.30;54.56;100808.13;5070451;28;20086;-69
2023/12/12 01:26:31;;;;;;;0.35;0.35;;;;;;;16.84;56.22;100811.03;5074105;28;20039;-69
2023/12/12 01:28:57;;;;;;;0.30;0.30;;;;;;;17.26;55.15;100804.34;5090375;28;20139;-71
2023/12/12 01:31:22;;;;;;;0.20;0.20;;;;;;;17.26;54.84;100808.94;5072029;28;20130;-69
2023/12/12 01:33:49;;;;;;;0.30;0.30;;;;;;;17.25;54.51;100813.59;5089973;28;20543;-68
2023/12/12 01:36:14;;;;;;;0.20;0.20;;;;;;;17.33;54.58;100814.94;5075711;28;20024;-70
2023/12/12 01:38:40;;;;;;;0.20;0.20;;;;;;;17.24;55.39;100821.97;5070113;28;20035;-70
2023/12/12 01:41:05;;;;;;;0.22;0.22;;;;;;;17.37;54.87;100813.31;5070084;28;20388;-69
2023/12/12 01:43:32;;;;;;;0.40;0.40;;;;;;;17.38;55.29;100812.22;5069803;28;20380;-70
2023/12/12 01:46:05;;;;;;;0.30;0.30;;;;;;;17.40;55.02;100812.75;5069941;28;20032;-69
2023/12/12 01:48:32;;;;;;;0.20;0.20;;;;;;;17.28;55.24;100818.47;5069933;28;20125;-70
2023/12/12 01:50:58;;;;;;;0.40;0.40;;;;;;;17.39;54.70;100814.66;5069960;28;20101;-70
2023/12/12 01:53:30;;;;;;;0.30;0.30;;;;;;;17.41;55.35;100815.19;5069879;28;20144;-69
2023/12/12 01:55:57;;;;;;;0.20;0.20;;;;;;;17.45;54.49;100812.78;5069928;28;20118;-69
2023/12/12 01:58:25;;;;;;;0.40;0.40;;;;;;;17.49;54.44;100809.25;5070062;28;20457;-69
2023/12/12 02:00:51;;;;;;;0.30;0.30;;;;;;;17.44;54.89;100802.97;5069616;28;20052;-68
2023/12/12 02:03:17;;;;;;;0.30;0.30;;;;;;;17.45;54.75;100805.44;5070457;28;20017;-69
2023/12/12 02:05:46;;;;;;;0.32;0.32;;;;;;;17.43;54.77;100801.38;5069683;28;20105;-69
2023/12/12 02:08:12;;;;;;;0.20;0.20;;;;;;;17.47;54.76;100797.03;5070002;28;20047;-69
2023/12/12 02:10:37;;;;;;;0.20;0.20;;;;;;;17.55;54.54;100789.16;5069891;28;20135;-70
2023/12/12 02:13:03;;;;;;;0.30;0.30;;;;;;;17.61;54.29;100797.31;5070113;28;20044;-69
2023/12/12 02:15:28;;;;;;;0.30;0.30;;;;;;;17.53;54.56;100794.03;5070422;28;20502;-69
2023/12/12 02:17:54;;;;;;;0.20;0.20;;;;;;;17.44;54.45;100789.41;5069783;28;20058;-70
2023/12/12 02:20:19;;;;;;;0.30;0.30;;;;;;;17.49;54.89;100792.97;5069728;28;20032;-70
2023/12/12 02:22:44;;;;;;;0.35;0.35;;;;;;;17.46;55.17;100793.50;5069791;28;20060;-70
2023/12/12 02:25:10;;;;;;;0.30;0.30;;;;;;;17.53;54.84;100787.81;5069555;28;20108;-70
2023/12/12 02:27:39;;;;;;;0.20;0.20;;;;;;;17.57;54.56;100785.38;5070098;28;20186;-69
2023/12/12 02:30:06;;;;;;;0.30;0.30;;;;;;;17.54;54.89;100789.44;5069623;28;20040;-70
2023/12/12 02:32:31;;;;;;;0.45;0.45;;;;;;;17.49;54.74;100787.53;5069367;28;20040;-70
2023/12/12 02:34:57;;;;;;;0.30;0.30;;;;;;;17.57;54.79;100783.47;5069324;28;20033;-70
2023/12/12 02:37:22;;;;;;;0.30;0.30;;;;;;;17.53;55.15;100782.38;5069630;28;20041;-71
2023/12/12 02:39:47;;;;;;;0.32;0.32;;;;;;;17.50;55.05;100778.31;5069615;28;20040;-68
2023/12/12 02:42:13;;;;;;;0.30;0.30;;;;;;;17.36;55.27;100779.06;5070139;28;20032;-69
2023/12/12 02:44:38;;;;;;;0.40;0.40;;;;;;;17.54;54.74;100775.84;5069381;28;20040;-70
2023/12/12 02:47:04;;;;;;;0.38;0.38;;;;;;;17.63;54.71;100784.28;5052684;28;20068;-69
2023/12/12 02:49:29;;;;;;;0.30;0.30;;;;;;;17.68;54.65;100773.41;5072450;28;20062;-69
2023/12/12 02:51:54;;;;;;;0.22;0.22;;;;;;;17.64;54.77;100777.75;5073031;28;20107;-69
2023/12/12 02:54:20;;;;;;;0.50;0.50;;;;;;;17.55;54.92;100781.00;5073453;28;20032;-69
2023/12/12 02:56:45;;;;;;;0.30;0.30;;;;;;;17.57;55.20;100782.66;5073023;28;20496;-70
2023/12/12 02:59:11;;;;;;;0.20;0.20;;;;;;;17.68;54.51;100776.94;5072913;28;20090;-69
2023/12/12 03:01:36;;;;;;;0.40;0.40;;;;;;;17.70;55.12;100776.66;5072762;28;20183;-69
2023/12/12 03:04:01;;;;;;;0.35;0.35;;;;;;;17.82;54.58;100779.91;5072633;28;20040;-69
2023/12/12 03:06:27;;;;;;;0.35;0.35;;;;;;;17.92;54.30;100783.44;5072827;28;20113;-69
2023/12/12 03:08:52;;;;;;;0.20;0.20;;;;;;;17.78;54.82;100773.38;5072888;28;20051;-69
2023/12/12 03:11:17;;;;;;;0.30;0.30;;;;;;;17.69;54.84;100785.91;5072720;28;20097;-70
2023/12/12 03:13:43;;;;;;;0.30;0.30;;;;;;;17.65;54.91;100776.66;5072689;28;20039;-68
2023/12/12 03:16:08;;;;;;;0.30;0.30;;;;;;;17.70;54.80;100782.91;5072667;28;20850;-71
2023/12/12 03:18:33;;;;;;;0.50;0.50;;;;;;;17.85;54.74;100779.34;5073109;28;20615;-70
2023/12/12 03:21:00;;;;;;;0.20;0.20;;;;;;;17.94;54.36;100781.25;5072285;28;20450;-69
2023/12/12 03:23:25;;;;;;;0.20;0.20;;;;;;;17.91;54.60;100780.97;5072507;28;20086;-70
2023/12/12 03:25:51;;;;;;;0.32;0.32;;;;;;;17.89;54.56;100781.25;5072507;28;20037;-71
2023/12/12 03:28:16;;;;;;;0.30;0.30;;;;;;;17.76;55.23;100778.28;5053419;28;20127;-69
2023/12/12 03:30:41;;;;;;;0.40;0.40;;;;;;;17.75;55.07;100782.88;5072461;28;20439;-65
2023/12/12 03:33:07;;;;;;;0.40;0.40;;;;;;;17.56;55.83;100781.81;5072879;28;20126;-69
2023/12/12 03:35:32;;;;;;;0.30;0.30;;;;;;;17.43;56.43;100777.72;5072221;28;20610;-69
2023/12/12 03:37:57;;;;;;;0.20;0.20;;;;;;;17.59;56.02;100772.31;5072120;28;20037;-68
2023/12/12 03:40:23;;;;;;;0.30;0.30;;;;;;;17.64;55.97;100773.13;5072345;28;20066;-70
2023/12/12 03:42:48;;;;;;;0.32;0.32;;;;;;;17.59;56.12;100770.44;5072069;28;20093;-68
2023/12/12 03:45:14;;;;;;;0.30;0.30;;;;;;;17.53;55.97;100776.94;5072449;28;20040;-69
2023/12/12 03:47:39;;;;;;;0.25;0.25;;;;;;;17.51;56.25;100774.47;5072098;28;20040;-70
2023/12/12 03:50:06;;;;;;;0.50;0.50;;;;;;;17.54;56.18;100764.97;5071760;28;20064;-71
2023/12/12 03:52:32;;;;;;;0.40;0.40;;;;;;;17.21;56.86;100768.22;5071830;28;20055;-69
2023/12/12 03:54:57;;;;;;;0.20;0.20;;;;;;;17.44;56.45;100762.22;5071963;28;20040;-70
2023/12/12 03:57:22;;;;;;;0.43;0.43;;;;;;;17.47;56.66;100761.72;5072367;28;20024;-69
2023/12/12 03:59:48;;;;;;;0.30;0.30;;;;;;;17.51;56.39;100765.53;5071795;28;20056;-69
2023/12/12 04:02:14;;;;;;;0.30;0.30;;;;;;;17.54;56.05;100764.97;5071218;28;20112;-69
2023/12/12 04:04:39;;;;;;;0.30;0.30;;;;;;;17.54;56.21;100757.66;5071680;28;20040;-70
2023/12/12 04:07:04;;;;;;;0.25;0.25;;;;;;;17.78;55.30;100766.06;5071275;28;20093;-69
2023/12/12 04:09:30;;;;;;;0.20;0.20;;;;;;;17.85;54.63;100752.97;5072078;28;20191;-69
2023/12/12 04:11:56;;;;;;;0.30;0.30;;;;;;;17.84;54.46;100745.94;5053212;28;20044;-68
2023/12/12 04:14:21;;;;;;;0.30;0.30;;;;;;;17.73;54.71;100747.00;5071482;28;20084;-69
2023/12/12 04:16:47;;;;;;;0.30;0.30;;;;;;;17.71;54.80;100751.13;5071520;28;20503;-70
2023/12/12 04:19:12;;;;;;;0.20;0.20;;;;;;;17.69;54.77;100756.00;5071405;28;20036;-70
2023/12/12 04:21:41;;;;;;;0.10;0.10;;;;;;;17.60;55.32;100758.47;5071643;28;20115;-69
2023/12/12 04:24:07;;;;;;;0.28;0.28;;;;;;;17.44;55.49;100759.53;5071544;28;20273;-69
2023/12/12 04:26:32;;;;;;;0.30;0.30;;;;;;;17.52;55.20;100757.09;5070923;28;20130;-70
2023/12/12 04:28:57;;;;;;;0.32;0.32;;;;;;;17.57;55.49;100761.72;5071288;28;20053;-69
2023/12/12 04:31:23;;;;;;;0.20;0.20;;;;;;;17.67;55.07;100753.53;5071483;28;20039;-68
2023/12/12 04:33:48;;;;;;;0.40;0.40;;;;;;;17.71;54.61;100745.69;5071667;28;20036;-69
2023/12/12 04:36:16;;;;;;;0.40;0.40;;;;;;;17.62;54.95;100750.03;5053575;28;20032;-69
2023/12/12 04:38:42;;;;;;;0.22;0.22;;;;;;;17.43;55.59;100747.03;5071068;28;20401;-69
2023/12/12 04:41:08;;;;;;;0.30;0.30;;;;;;;17.50;55.32;100751.13;5071191;28;20040;-69
2023/12/12 04:43:33;;;;;;;0.30;0.30;;;;;;;17.53;55.04;100752.50;5052339;28;20037;-69
2023/12/12 04:45:59;;;;;;;0.30;0.30;;;;;;;17.45;55.04;100755.72;5052947;28;20067;-69
2023/12/12 04:48:24;;;;;;;0.35;0.35;;;;;;;17.44;54.50;100751.38;5071133;28;20028;-69
2023/12/12 04:50:49;;;;;;;0.20;0.20;;;;;;;17.30;54.80;100748.38;5070873;28;20064;-70
2023/12/12 04:53:17;;;;;;;0.30;0.30;;;;;;;16.95;55.06;100753.78;5070659;28;20127;-69
2023/12/12 04:55:42;;;;;;;0.38;0.38;;;;;;;16.87;55.46;100746.16;5070875;28;20063;-70
2023/12/12 04:58:07;;;;;;;0.20;0.20;;;;;;;17.17;54.31;100746.22;5070673;28;20473;-69
2023/12/12 05:00:33;;;;;;;0.25;0.25;;;;;;;16.89;55.07;100738.56;5053006;28;20058;-69
2023/12/12 05:02:58;;;;;;;0.20;0.20;;;;;;;17.00;54.09;100740.19;5067213;28;20052;-70
2023/12/12 05:05:23;;;;;;;0.30;0.30;;;;;;;17.03;53.91;100733.44;5068668;28;20412;-69
2023/12/12 05:07:49;;;;;;;0.20;0.20;;;;;;;16.90;53.99;100736.69;5068605;28;20396;-70
2023/12/12 05:10:14;;;;;;;0.40;0.40;;;;;;;16.77;54.46;100734.47;5068771;28;20520;-69
2023/12/12 05:12:39;;;;;;;0.25;0.25;;;;;;;16.65;54.42;100729.28;5069532;28;20032;-69
2023/12/12 05:15:05;;;;;;;0.30;0.30;;;;;;;16.67;54.22;100736.09;5069087;28;20063;-68
2023/12/12 05:17:31;;;;;;;0.40;0.40;;;;;;;16.60;54.02;100730.09;5068271;28;20102;-69
2023/12/12 05:19:59;;;;;;;0.30;0.30;;;;;;;16.47;54.81;100730.56;5069433;28;20036;-69
2023/12/12 05:22:24;;;;;;;0.30;0.30;;;;;;;16.46;54.26;100718.09;5069074;28;20124;-70
2023/12/12 05:24:49;;;;;;;0.30;0.30;;;;;;;16.37;54.79;100722.38;5069164;28;20119;-69
2023/12/12 05:27:15;;;;;;;0.30;0.30;;;;;;;16.30;54.92;100718.28;5069919;28;20025;-69
2023/12/12 05:29:40;;;;;;;0.32;0.32;;;;;;;16.22;54.80;100725.03;5069063;28;20036;-69
2023/12/12 05:32:06;;;;;;;0.20;0.20;;;;;;;16.13;54.81;100720.41;5069197;28;20050;-69
2023/12/12 05:34:31;;;;;;;0.20;0.20;;;;;;;16.10;54.63;100719.03;5068971;28;20123;-69
2023/12/12 05:36:57;;;;;;;0.30;0.30;;;;;;;15.91;54.51;100722.44;5069209;28;20536;-68
2023/12/12 05:39:22;;;;;;;0.40;0.40;;;;;;;15.86;55.25;100719.72;5069744;28;20550;-70
2023/12/12 05:41:48;;;;;;;0.40;0.40;;;;;;;15.86;55.51;100723.25;5069046;28;20044;-69
2023/12/12 05:44:14;;;;;;;0.20;0.20;;;;;;;15.68;56.01;100729.91;5069164;28;20124;-69
2023/12/12 05:46:39;;;;;;;0.30;0.30;;;;;;;15.87;55.06;100724.06;5069228;28;20040;-69
2023/12/12 05:49:05;;;;;;;0.28;0.28;;;;;;;15.88;55.01;100723.00;5065902;28;20120;-68
2023/12/12 05:51:34;;;;;;;0.40;0.40;;;;;;;15.87;54.97;100724.88;5047804;28;20033;-69
2023/12/12 05:53:59;;;;;;;0.30;0.30;;;;;;;15.76;54.90;100715.06;5047951;28;20029;-70
2023/12/12 05:56:24;;;;;;;0.40;0.40;;;;;;;15.48;55.63;100710.00;5048184;28;20048;-69
2023/12/12 05:58:51;;;;;;;0.50;0.50;;;;;;;15.57;55.25;100708.44;5048063;28;20132;-70
2023/12/12 06:01:17;;;;;;;0.40;0.40;;;;;;;15.71;54.54;100713.13;5048175;28;20203;-70
2023/12/12 06:03:42;;;;;;;0.30;0.30;;;;;;;15.63;54.46;100701.97;5048189;28;20139;-68
2023/12/12 06:06:09;;;;;;;0.30;0.30;;;;;;;15.45;54.92;100713.25;5048604;28;20079;-70
2023/12/12 06:08:35;;;;;;;0.30;0.30;;;;;;;15.34;54.96;100717.72;5048159;28;20083;-70
2023/12/12 06:11:00;;;;;;;0.20;0.20;;;;;;;15.39;54.92;100711.53;5048486;28;20064;-70
2023/12/12 06:13:26;;;;;;;0.30;0.30;;;;;;;15.43;54.88;100712.69;5048398;28;20072;-69
2023/12/12 06:15:51;;;;;;;0.30;0.30;;;;;;;15.42;54.71;100708.34;5048496;28;20211;-69
2023/12/12 06:18:17;;;;;;;0.50;0.50;;;;;;;15.13;54.66;100710.53;5057383;28;20102;-69
2023/12/12 06:20:43;;;;;;;0.30;0.30;;;;;;;15.12;55.20;100702.63;5065263;28;20049;-70
2023/12/12 06:23:08;;;;;;;0.30;0.30;;;;;;;15.26;55.20;100704.66;5058784;28;20036;-70
2023/12/12 06:25:34;;;;;;;0.28;0.28;;;;;;;15.12;55.36;100702.63;5062910;28;20286;-69
2023/12/12 06:27:59;;;;;;;0.20;0.20;;;;;;;15.20;55.07;100703.00;5057885;28;20024;-70
2023/12/12 06:30:24;;;;;;;0.40;0.40;;;;;;;15.18;54.95;100694.31;5062118;28;20466;-69
2023/12/12 06:32:50;;;;;;;0.32;0.32;;;;;;;15.15;54.92;100702.13;5063733;28;20036;-71
2023/12/12 06:35:15;;;;;;;0.30;0.30;;;;;;;15.15;55.27;100699.44;5066491;28;20472;-70
2023/12/12 06:37:42;;;;;;;0.32;0.32;;;;;;;15.20;54.51;100697.56;5061033;28;20045;-70
2023/12/12 06:40:08;;;;;;;0.45;0.45;;;;;;;15.14;54.84;100695.91;5060424;28;20041;-69
2023/12/12 06:42:35;;;;;;;0.32;0.32;;;;;;;15.11;54.89;100691.03;5063274;28;20027;-70
2023/12/12 06:45:00;;;;;;;0.55;0.55;;;;;;;15.03;54.46;100698.78;5065261;28;20099;-70
2023/12/12 06:47:26;;;;;;;0.40;0.40;;;;;;;15.03;54.69;100696.09;5053264;28;20140;-70
2023/12/12 06:49:51;;;;;;;0.30;0.30;;;;;;;15.01;54.92;100696.34;5063926;28;20522;-70
2023/12/12 06:52:16;;;;;;;0.40;0.40;;;;;;;14.87;54.67;100693.25;5072125;28;20054;-69
2023/12/12 06:54:42;;;;;;;0.20;0.20;;;;;;;14.89;54.94;100693.00;5071696;28;20111;-67
2023/12/12 06:57:07;;;;;;;0.40;0.40;;;;;;;14.98;55.09;100696.06;5069288;28;20040;-69
2023/12/12 06:59:32;;;;;;;0.40;0.40;;;;;;;15.14;54.13;100695.91;5074900;28;20134;-69
2023/12/12 07:01:58;;;;;;;0.30;0.30;;;;;;;15.09;54.37;100695.06;5071946;28;20039;-69
2023/12/12 07:04:23;;;;;;;0.20;0.20;;;;;;;14.96;54.66;100701.69;5071105;28;20051;-71
2023/12/12 07:06:48;;;;;;;0.40;0.40;;;;;;;14.89;54.96;100685.69;5075565;28;20046;-68
2023/12/12 07:09:14;;;;;;;0.40;0.40;;;;;;;14.89;55.02;100688.41;5064243;28;20032;-69
2023/12/12 07:11:39;;;;;;;0.32;0.32;;;;;;;14.93;54.80;100694.09;5067361;28;20580;-70
2023/12/12 07:14:04;;;;;;;0.30;0.30;;;;;;;14.96;54.68;100693.56;5069458;28;20492;-69
2023/12/12 07:16:30;;;;;;;0.20;0.20;;;;;;;15.07;54.62;100689.09;5073663;28;20032;-69
2023/12/12 07:18:55;;;;;;;0.50;0.50;;;;;;;15.14;54.24;100685.06;5071625;28;20055;-69
2023/12/12 07:21:22;;;;;;;0.20;0.20;;;;;;;15.28;53.83;100682.75;5069574;28;20031;-70
2023/12/12 07:23:50;;;;;;;0.47;0.47;;;;;;;15.16;53.94;100676.69;5075157;28;20135;-69
2023/12/12 07:26:16;;;;;;;0.28;0.28;;;;;;;15.00;54.93;100677.66;5066531;28;20044;-69
2023/12/12 07:28:41;;;;;;;0.30;0.30;;;;;;;15.23;54.27;100680.00;5081797;28;20036;-69
2023/12/12 07:31:09;;;;;;;0.40;0.40;;;;;;;15.39;54.25;100681.75;5070831;28;20041;-69
2023/12/12 07:33:35;;;;;;;0.20;0.20;;;;;;;15.24;54.65;100671.63;5062716;28;20404;-70
2023/12/12 07:36:01;;;;;;;0.50;0.50;;;;;;;15.40;54.27;100675.25;5078271;28;20036;-68
2023/12/12 07:38:26;;;;;;;0.30;0.30;;;;;;;15.17;54.92;100664.81;5051489;28;20044;-70
2023/12/12 07:40:51;;;;;;;0.30;0.30;;;;;;;15.53;54.16;100670.22;5071123;28;20143;-69
2023/12/12 07:43:16;;;;;;;0.30;0.30;;;;;;;15.20;54.81;100670.50;5088460;28;20039;-69
2023/12/12 07:45:42;;;;;;;0.30;0.30;;;;;;;14.62;56.87;100659.75;5084606;28;20063;-68
2023/12/12 07:48:07;;;;;;;0.50;0.50;;;;;;;14.84;56.82;100655.03;5082138;28;20060;-69
2023/12/12 07:50:33;;;;;;;0.40;0.40;;;;;;;15.17;55.61;100659.38;5046705;28;20040;-69
2023/12/12 07:52:58;;;;;;;0.30;0.30;;;;;;;14.94;56.68;100663.25;5040776;28;20043;-69
2023/12/12 07:55:24;;;;;;;0.40;0.40;;;;;;;15.12;55.69;100653.91;5037111;28;20037;-69
2023/12/12 07:57:49;;;;;;;0.40;0.40;;;;;;;15.13;55.72;100658.28;5063673;28;20097;-69
2023/12/12 08:00:15;;;;;;;0.30;0.30;;;;;;;14.96;56.32;100658.41;5068493;28;20062;-70
2023/12/12 08:02:40;;;;;;;0.50;0.50;;;;;;;15.19;55.94;100651.81;5063920;28;20033;-69
2023/12/12 08:05:06;;;;;;;0.35;0.35;;;;;;;15.08;56.49;100656.34;5068762;28;20219;-70
2023/12/12 08:07:31;;;;;;;0.32;0.32;;;;;;;15.08;57.80;100658.22;5055827;28;20045;-70
2023/12/12 08:09:56;;;;;;;0.40;0.40;;;;;;;15.33;55.17;100663.84;5050448;28;20032;-70
2023/12/12 08:12:23;;;;;;;0.50;0.50;;;;;;;15.27;56.23;100656.75;5050963;28;20104;-71
2023/12/12 08:14:49;;;;;;;0.40;0.40;;;;;;;15.31;56.02;100661.38;5051278;28;20045;-70
2023/12/12 08:17:14;;;;;;;0.40;0.40;;;;;;;14.78;57.88;100653.41;5051449;28;20068;-70
2023/12/12 08:19:40;;;;;;;0.30;0.30;;;;;;;15.21;56.55;100644.25;5050709;28;20072;-69
2023/12/12 08:22:05;;;;;;;0.30;0.30;;;;;;;15.10;57.53;100645.25;5050326;28;20036;-70
2023/12/12 08:24:31;;;;;;;0.30;0.30;;;;;;;15.50;56.03;100632.84;5050502;28;20541;-70
2023/12/12 08:26:56;;;;;;;0.40;0.40;;;;;;;15.67;54.80;100641.59;5050343;28;20462;-70
2023/12/12 08:29:22;;;;;;;0.40;0.40;;;;;;;15.79;54.50;100635.97;5049744;28;20461;-69
2023/12/12 08:31:47;;;;;;;0.35;0.35;;;;;;;15.66;55.30;100633.75;5050167;28;20065;-70
2023/12/12 08:34:12;;;;;;;0.45;0.45;;;;;;;15.66;54.75;100628.31;5049904;28;20045;-70
2023/12/12 08:36:38;;;;;;;0.38;0.38;;;;;;;15.35;55.92;100632.69;5050364;28;20051;-70
2023/12/12 08:39:03;;;;;;;0.30;0.30;;;;;;;15.64;55.67;100630.47;5049646;28;20029;-70
2023/12/12 08:41:30;;;;;;;0.30;0.30;;;;;;;15.69;55.45;100622.34;5049813;28;20116;-69
2023/12/12 08:44:00;;;;;;;0.25;0.25;;;;;;;15.46;56.46;100620.91;5048686;28;20124;-69
2023/12/12 08:46:28;;;;;;;0.50;0.50;;;;;;;15.67;55.70;100619.91;5049722;28;20043;-70
2023/12/12 08:48:57;;;;;;;0.50;0.50;;;;;;;15.74;55.03;100622.41;5033923;28;20057;-70
2023/12/12 08:51:23;;;;;;;0.35;0.35;;;;;;;15.77;55.73;100619.16;5050164;28;20020;-71
2023/12/12 08:53:49;;;;;;;0.40;0.40;;;;;;;15.63;55.02;100624.22;5030939;28;20120;-69
2023/12/12 08:56:16;;;;;;;0.45;0.45;;;;;;;15.83;55.44;100616.19;5049687;28;20121;-70
2023/12/12 08:58:43;;;;;;;0.30;0.30;;;;;;;16.00;55.58;100613.25;5049296;28;20045;-70
2023/12/12 09:01:08;;;;;;;0.30;0.30;;;;;;;15.33;56.73;100620.53;5056215;28;20048;-70
2023/12/12 09:03:34;;;;;;;0.30;0.30;;;;;;;15.45;57.17;100621.16;5090713;28;20031;-71
2023/12/12 09:06:00;;;;;;;0.22;0.22;;;;;;;15.66;56.12;100620.97;5089071;28;20518;-70
2023/12/12 09:08:26;;;;;;;0.30;0.30;;;;;;;15.47;57.27;100619.00;5089595;28;20036;-70
2023/12/12 09:10:52;;;;;;;0.30;0.30;;;;;;;15.68;56.37;100620.75;5089323;28;20036;-71
2023/12/12 09:13:17;;;;;;;0.40;0.40;;;;;;;15.98;56.25;100618.13;5089239;28;20295;-70
2023/12/12 09:15:43;;;;;;;0.40;0.40;;;;;;;16.03;55.58;100607.34;5083587;28;20024;-69
2023/12/12 09:18:09;;;;;;;0.30;0.30;;;;;;;15.80;56.38;100603.16;5069537;28;20086;-71
2023/12/12 09:20:35;;;;;;;0.40;0.40;;;;;;;15.32;58.21;100598.03;5068826;28;20471;-70
2023/12/12 09:23:00;;;;;;;0.40;0.40;;;;;;;15.54;58.22;100597.91;5068730;28;20112;-70
2023/12/12 09:25:26;;;;;;;0.50;0.50;;;;;;;16.18;56.42;100598.41;5068709;28;20116;-70
2023/12/12 09:27:51;;;;;;;0.30;0.30;;;;;;;16.03;56.14;100593.78;5068637;28;20449;-68
2023/12/12 09:30:17;;;;;;;0.32;0.32;;;;;;;16.22;56.43;100584.06;5068615;28;20392;-68
2023/12/12 09:32:42;;;;;;;0.30;0.30;;;;;;;16.36;55.92;100592.47;5084953;28;20082;-68
2023/12/12 09:35:09;;;;;;;0.40;0.40;;;;;;;16.17;56.89;100581.34;5088854;28;20115;-68
2023/12/12 09:37:34;;;;;;;0.30;0.30;;;;;;;16.29;56.19;100583.81;5088962;28;20115;-69
2023/12/12 09:40:03;;;;;;;0.32;0.32;;;;;;;16.19;56.74;100578.34;5075586;28;20042;-69
2023/12/12 09:42:31;;;;;;;0.38;0.38;;;;;;;16.02;57.22;100578.56;5069542;28;20079;-70
2023/12/12 09:44:59;;;;;;;0.50;0.50;;;;;;;16.40;56.05;100578.13;5086256;28;20062;-69
2023/12/12 09:47:27;;;;;;;0.28;0.28;;;;;;;16.40;56.13;100569.16;5088750;28;20042;-69
2023/12/12 09:49:55;;;;;;;0.30;0.30;;;;;;;16.00;57.79;100559.06;5088418;28;20051;-70
2023/12/12 09:52:21;;;;;;;0.30;0.30;;;;;;;16.22;57.27;100556.94;5088694;28;20035;-70
2023/12/12 09:54:47;;;;;;;0.30;0.30;;;;;;;16.50;56.49;100547.50;5088473;28;20361;-69
2023/12/12 09:57:16;;;;;;;0.38;0.38;;;;;;;16.92;55.67;100537.19;5093472;28;20031;-70
2023/12/12 09:59:42;;;;;;;0.30;0.30;;;;;;;16.93;55.81;100535.25;5092671;28;20089;-69
2023/12/12 10:02:10;;;;;;;0.50;0.50;;;;;;;16.69;56.62;100524.97;5092487;28;20043;-71
2023/12/12 10:04:35;;;;;;;0.28;0.28;;;;;;;16.68;57.31;100533.41;5092126;28;20120;-69
2023/12/12 10:07:03;;;;;;;0.30;0.30;;;;;;;16.77;57.19;100520.06;5092604;28;20061;-69
2023/12/12 10:09:31;;;;;;;0.20;0.20;;;;;;;17.21;55.73;100521.09;5092750;28;20063;-70
2023/12/12 10:11:56;;;;;;;0.40;0.40;;;;;;;16.91;57.01;100515.72;5093059;28;20044;-69
2023/12/12 10:14:39;;;;;;;0.20;0.20;;;;;;;16.84;57.53;100510.59;5092639;28;20518;-69
2023/12/12 10:17:05;;;;;;;0.30;0.30;;;;;;;16.64;57.18;100500.59;5075347;28;20048;-71
2023/12/12 10:19:31;;;;;;;0.30;0.30;;;;;;;16.62;57.95;100491.91;5072266;28;20037;-70
2023/12/12 10:22:01;;;;;;;0.40;0.40;;;;;;;16.69;58.97;100487.00;5072640;28;20028;-70
2023/12/12 10:24:26;;;;;;;0.30;0.30;;;;;;;16.64;59.04;100486.19;5072568;28;20484;-71
2023/12/12 10:26:52;;;;;;;0.20;0.20;;;;;;;16.71;58.66;100480.50;5072299;28;20448;-71
2023/12/12 10:29:19;;;;;;;0.30;0.30;;;;;;;16.80;58.16;100484.25;5072283;28;20326;-69
2023/12/12 10:31:46;;;;;;;0.20;0.20;;;;;;;17.12;57.22;100476.59;5072278;28;20382;-70
2023/12/12 10:34:11;;;;;;;0.30;0.30;;;;;;;17.09;57.65;100466.25;5071971;28;20091;-71
2023/12/12 10:36:38;;;;;;;0.40;0.40;;;;;;;16.50;59.25;100469.66;5072427;28;20224;-70
2023/12/12 10:39:13;;;;;;;0.30;0.30;;;;;;;17.40;57.53;100473.19;5053792;28;20044;-70
2023/12/12 10:41:39;;;;;;;0.30;0.30;;;;;;;16.84;58.53;100460.91;5072185;28;20496;-70
2023/12/12 10:44:08;;;;;;;0.20;0.20;;;;;;;17.15;57.58;100444.25;5082458;28;20093;-70
2023/12/12 10:46:37;;;;;;;0.40;0.40;;;;;;;17.50;56.77;100432.44;5092658;28;20055;-71
2023/12/12 10:49:03;;;;;;;0.20;0.20;;;;;;;16.79;58.93;100431.88;5091955;28;20052;-70
2023/12/12 10:51:28;;;;;;;0.30;0.30;;;;;;;16.40;59.65;100426.25;5092668;28;20090;-71
2023/12/12 10:53:54;;;;;;;0.20;0.20;;;;;;;16.26;60.61;100414.31;5092070;28;20518;-70
2023/12/12 10:56:20;;;;;;;0.28;0.28;;;;;;;16.78;59.44;100424.84;5091763;28;20111;-70
2023/12/12 10:58:48;;;;;;;0.32;0.32;;;;;;;16.69;60.27;100429.19;5091915;28;20478;-70
2023/12/12 11:01:15;;;;;;;0.20;0.20;;;;;;;17.23;58.76;100418.41;5091680;28;20437;-70
2023/12/12 11:03:43;;;;;;;0.50;0.50;;;;;;;17.48;57.79;100404.69;5092380;28;20024;-69
2023/12/12 11:06:09;;;;;;;0.30;0.30;;;;;;;17.07;58.69;100414.16;5092346;28;20761;-70
2023/12/12 11:08:35;;;;;;;0.20;0.20;;;;;;;16.90;60.10;100406.34;5090842;28;20452;-70
2023/12/12 11:11:11;;;;;;;0.30;0.30;;;;;;;17.51;58.67;100409.63;5091657;28;20047;-70
2023/12/12 11:13:39;;;;;;;0.40;0.40;;;;;;;17.39;58.73;100406.38;5091778;28;20040;-70
2023/12/12 11:16:07;;;;;;;0.40;0.40;;;;;;;17.13;58.84;100397.56;5082315;28;20051;-70
2023/12/12 11:18:36;;;;;;;0.22;0.22;;;;;;;17.50;58.39;100392.50;5072136;28;20020;-71